sensor_id;sensor_type;location;lat;lon;timestamp;P1;durP1;ratioP1;P2;durP2;ratioP2
16813;SDS011;8524;57.650;11.926;2022-09-04T00:02:21;1.50;;;1.40;;
16813;SDS011;8524;57.650;11.926;2022-09-04T00:05:00;1.50;;;1.40;;
16813;SDS011;8524;57.650;11.926;2022-09-04T00:07:33;1.20;;;1.10;;
16813;SDS011;8524;57.650;11.926;2022-09-04T00:10:10;1.40;;;1.30;;
16813;SDS011;8524;57.650;11.926;2022-09-04T00:12:44;1.53;;;1.30;;
16813;SDS011;8524;57.650;11.926;2022-09-04T00:15:16;1.20;;;1.10;;
16813;SDS011;8524;57.650;11.926;2022-09-04T00:17:49;1.37;;;1.27;;
16813;SDS011;8524;57.650;11.926;2022-09-04T00:20:25;1.40;;;1.30;;
16813;SDS011;8524;57.650;11.926;2022-09-04T00:22:59;1.60;;;1.40;;
16813;SDS011;8524;57.650;11.926;2022-09-04T00:25:33;1.17;;;1.17;;
16813;SDS011;8524;57.650;11.926;2022-09-04T00:28:06;1.20;;;1.10;;
16813;SDS011;8524;57.650;11.926;2022-09-04T00:30:39;1.40;;;1.30;;
16813;SDS011;8524;57.650;11.926;2022-09-04T00:33:16;1.50;;;1.40;;
16813;SDS011;8524;57.650;11.926;2022-09-04T00:35:51;1.40;;;1.30;;
16813;SDS011;8524;57.650;11.926;2022-09-04T00:38:25;1.33;;;1.23;;
16813;SDS011;8524;57.650;11.926;2022-09-04T00:41:03;1.43;;;1.33;;
16813;SDS011;8524;57.650;11.926;2022-09-04T00:43:50;1.70;;;1.40;;
16813;SDS011;8524;57.650;11.926;2022-09-04T00:50:12;1.30;;;1.20;;
16813;SDS011;8524;57.650;11.926;2022-09-04T00:52:59;1.37;;;1.20;;
16813;SDS011;8524;57.650;11.926;2022-09-04T00:55:48;1.30;;;1.20;;
16813;SDS011;8524;57.650;11.926;2022-09-04T01:01:22;1.48;;;1.38;;
16813;SDS011;8524;57.650;11.926;2022-09-04T01:03:55;1.10;;;1.00;;
16813;SDS011;8524;57.650;11.926;2022-09-04T01:06:39;2.23;;;1.10;;
16813;SDS011;8524;57.650;11.926;2022-09-04T01:12:11;1.40;;;1.30;;
16813;SDS011;8524;57.650;11.926;2022-09-04T01:14:51;1.30;;;1.20;;
16813;SDS011;8524;57.650;11.926;2022-09-04T01:17:25;1.47;;;1.10;;
16813;SDS011;8524;57.650;11.926;2022-09-04T01:19:57;1.50;;;1.40;;
16813;SDS011;8524;57.650;11.926;2022-09-04T01:22:41;1.07;;;0.97;;
16813;SDS011;8524;57.650;11.926;2022-09-04T01:25:29;1.50;;;1.40;;
16813;SDS011;8524;57.650;11.926;2022-09-04T01:28:15;1.40;;;1.30;;
16813;SDS011;8524;57.650;11.926;2022-09-04T01:30:48;1.60;;;1.30;;
16813;SDS011;8524;57.650;11.926;2022-09-04T01:33:21;1.20;;;1.17;;
16813;SDS011;8524;57.650;11.926;2022-09-04T01:35:55;1.50;;;1.10;;
16813;SDS011;8524;57.650;11.926;2022-09-04T01:38:30;0.93;;;0.90;;
16813;SDS011;8524;57.650;11.926;2022-09-04T01:41:06;1.07;;;1.07;;
16813;SDS011;8524;57.650;11.926;2022-09-04T01:43:40;1.60;;;1.10;;
16813;SDS011;8524;57.650;11.926;2022-09-04T01:46:15;1.30;;;1.20;;
16813;SDS011;8524;57.650;11.926;2022-09-04T01:49:06;1.10;;;1.00;;
16813;SDS011;8524;57.650;11.926;2022-09-04T01:51:41;1.17;;;0.90;;
16813;SDS011;8524;57.650;11.926;2022-09-04T01:54:19;1.40;;;1.30;;
16813;SDS011;8524;57.650;11.926;2022-09-04T01:56:56;1.00;;;1.00;;
16813;SDS011;8524;57.650;11.926;2022-09-04T01:59:38;1.40;;;1.30;;
16813;SDS011;8524;57.650;11.926;2022-09-04T02:02:16;1.20;;;1.10;;
16813;SDS011;8524;57.650;11.926;2022-09-04T02:04:52;1.47;;;1.10;;
16813;SDS011;8524;57.650;11.926;2022-09-04T02:07:26;1.73;;;1.40;;
16813;SDS011;8524;57.650;11.926;2022-09-04T02:10:01;1.27;;;1.17;;
16813;SDS011;8524;57.650;11.926;2022-09-04T02:12:36;1.13;;;1.13;;
16813;SDS011;8524;57.650;11.926;2022-09-04T02:15:17;1.17;;;1.07;;
16813;SDS011;8524;57.650;11.926;2022-09-04T02:17:56;1.50;;;1.20;;
16813;SDS011;8524;57.650;11.926;2022-09-04T02:20:35;1.53;;;1.20;;
16813;SDS011;8524;57.650;11.926;2022-09-04T02:23:07;0.90;;;0.90;;
16813;SDS011;8524;57.650;11.926;2022-09-04T02:25:43;1.30;;;1.00;;
16813;SDS011;8524;57.650;11.926;2022-09-04T02:28:24;1.20;;;1.10;;
16813;SDS011;8524;57.650;11.926;2022-09-04T02:31:00;1.00;;;1.00;;
16813;SDS011;8524;57.650;11.926;2022-09-04T02:33:37;1.30;;;1.20;;
16813;SDS011;8524;57.650;11.926;2022-09-04T02:36:13;1.20;;;1.10;;
16813;SDS011;8524;57.650;11.926;2022-09-04T02:38:46;1.20;;;1.10;;
16813;SDS011;8524;57.650;11.926;2022-09-04T02:41:23;1.00;;;1.00;;
16813;SDS011;8524;57.650;11.926;2022-09-04T02:44:07;1.40;;;1.30;;
16813;SDS011;8524;57.650;11.926;2022-09-04T02:46:45;1.00;;;0.90;;
16813;SDS011;8524;57.650;11.926;2022-09-04T02:49:26;0.83;;;0.83;;
16813;SDS011;8524;57.650;11.926;2022-09-04T02:52:02;1.30;;;1.20;;
16813;SDS011;8524;57.650;11.926;2022-09-04T02:54:46;1.10;;;1.10;;
16813;SDS011;8524;57.650;11.926;2022-09-04T02:57:27;1.20;;;1.10;;
16813;SDS011;8524;57.650;11.926;2022-09-04T03:00:06;1.03;;;1.00;;
16813;SDS011;8524;57.650;11.926;2022-09-04T03:02:40;0.90;;;0.90;;
16813;SDS011;8524;57.650;11.926;2022-09-04T03:05:15;1.10;;;0.90;;
16813;SDS011;8524;57.650;11.926;2022-09-04T03:07:49;1.00;;;1.00;;
16813;SDS011;8524;57.650;11.926;2022-09-04T03:10:21;1.10;;;1.00;;
16813;SDS011;8524;57.650;11.926;2022-09-04T03:12:55;1.03;;;0.90;;
16813;SDS011;8524;57.650;11.926;2022-09-04T03:15:29;0.97;;;0.93;;
16813;SDS011;8524;57.650;11.926;2022-09-04T03:18:03;2.00;;;1.10;;
16813;SDS011;8524;57.650;11.926;2022-09-04T03:20:36;0.90;;;0.90;;
16813;SDS011;8524;57.650;11.926;2022-09-04T03:23:09;1.00;;;0.93;;
16813;SDS011;8524;57.650;11.926;2022-09-04T03:25:49;1.30;;;1.20;;
16813;SDS011;8524;57.650;11.926;2022-09-04T03:28:45;1.37;;;1.27;;
16813;SDS011;8524;57.650;11.926;2022-09-04T03:31:25;1.20;;;1.10;;
16813;SDS011;8524;57.650;11.926;2022-09-04T03:33:59;1.10;;;1.10;;
16813;SDS011;8524;57.650;11.926;2022-09-04T03:36:44;1.10;;;1.00;;
16813;SDS011;8524;57.650;11.926;2022-09-04T03:39:20;1.00;;;0.90;;
16813;SDS011;8524;57.650;11.926;2022-09-04T03:41:55;1.53;;;1.20;;
16813;SDS011;8524;57.650;11.926;2022-09-04T03:44:34;0.90;;;0.90;;
16813;SDS011;8524;57.650;11.926;2022-09-04T03:47:14;1.20;;;1.10;;
16813;SDS011;8524;57.650;11.926;2022-09-04T03:49:51;1.40;;;1.23;;
16813;SDS011;8524;57.650;11.926;2022-09-04T03:52:30;1.07;;;1.07;;
16813;SDS011;8524;57.650;11.926;2022-09-04T03:58:03;1.20;;;1.10;;
16813;SDS011;8524;57.650;11.926;2022-09-04T04:00:42;1.37;;;1.27;;
16813;SDS011;8524;57.650;11.926;2022-09-04T04:03:18;1.00;;;1.00;;
16813;SDS011;8524;57.650;11.926;2022-09-04T04:06:05;1.10;;;1.00;;
16813;SDS011;8524;57.650;11.926;2022-09-04T04:08:47;1.17;;;1.17;;
16813;SDS011;8524;57.650;11.926;2022-09-04T04:11:37;3.73;;;1.20;;
16813;SDS011;8524;57.650;11.926;2022-09-04T04:14:19;1.30;;;1.20;;
16813;SDS011;8524;57.650;11.926;2022-09-04T04:17:03;1.30;;;1.20;;
16813;SDS011;8524;57.650;11.926;2022-09-04T04:19:49;1.30;;;1.20;;
16813;SDS011;8524;57.650;11.926;2022-09-04T04:22:31;1.23;;;1.13;;
16813;SDS011;8524;57.650;11.926;2022-09-04T04:28:17;1.20;;;1.10;;
16813;SDS011;8524;57.650;11.926;2022-09-04T04:30:57;1.10;;;1.00;;
16813;SDS011;8524;57.650;11.926;2022-09-04T04:33:37;1.10;;;1.00;;
16813;SDS011;8524;57.650;11.926;2022-09-04T04:36:14;0.90;;;0.90;;
16813;SDS011;8524;57.650;11.926;2022-09-04T04:38:54;0.90;;;0.90;;
16813;SDS011;8524;57.650;11.926;2022-09-04T04:41:47;1.20;;;1.07;;
16813;SDS011;8524;57.650;11.926;2022-09-04T04:44:37;1.70;;;1.03;;
16813;SDS011;8524;57.650;11.926;2022-09-04T04:47:55;2.17;;;1.10;;
16813;SDS011;8524;57.650;11.926;2022-09-04T04:50:52;1.33;;;1.00;;
16813;SDS011;8524;57.650;11.926;2022-09-04T04:53:31;1.20;;;1.10;;
16813;SDS011;8524;57.650;11.926;2022-09-04T04:56:05;1.20;;;1.10;;
16813;SDS011;8524;57.650;11.926;2022-09-04T04:58:49;1.33;;;1.23;;
16813;SDS011;8524;57.650;11.926;2022-09-04T05:01:40;1.23;;;1.13;;
16813;SDS011;8524;57.650;11.926;2022-09-04T05:04:16;1.43;;;1.13;;
16813;SDS011;8524;57.650;11.926;2022-09-04T05:06:55;1.20;;;1.10;;
16813;SDS011;8524;57.650;11.926;2022-09-04T05:09:33;1.10;;;1.00;;
16813;SDS011;8524;57.650;11.926;2022-09-04T05:12:08;1.48;;;1.33;;
16813;SDS011;8524;57.650;11.926;2022-09-04T05:14:45;1.20;;;1.10;;
16813;SDS011;8524;57.650;11.926;2022-09-04T05:17:21;1.20;;;1.10;;
16813;SDS011;8524;57.650;11.926;2022-09-04T05:20:11;1.20;;;1.10;;
16813;SDS011;8524;57.650;11.926;2022-09-04T05:22:46;1.53;;;1.37;;
16813;SDS011;8524;57.650;11.926;2022-09-04T05:25:22;1.30;;;1.20;;
16813;SDS011;8524;57.650;11.926;2022-09-04T05:28:02;1.30;;;1.00;;
16813;SDS011;8524;57.650;11.926;2022-09-04T05:30:36;1.27;;;1.10;;
16813;SDS011;8524;57.650;11.926;2022-09-04T05:33:14;1.20;;;1.10;;
16813;SDS011;8524;57.650;11.926;2022-09-04T05:35:49;1.30;;;1.13;;
16813;SDS011;8524;57.650;11.926;2022-09-04T05:38:25;1.33;;;1.00;;
16813;SDS011;8524;57.650;11.926;2022-09-04T05:41:03;1.70;;;1.07;;
16813;SDS011;8524;57.650;11.926;2022-09-04T05:43:38;1.10;;;1.00;;
16813;SDS011;8524;57.650;11.926;2022-09-04T05:46:25;1.57;;;1.20;;
16813;SDS011;8524;57.650;11.926;2022-09-04T05:49:02;0.97;;;0.90;;
16813;SDS011;8524;57.650;11.926;2022-09-04T05:51:51;0.90;;;0.90;;
16813;SDS011;8524;57.650;11.926;2022-09-04T05:57:45;1.00;;;1.00;;
16813;SDS011;8524;57.650;11.926;2022-09-04T06:00:24;1.37;;;1.03;;
16813;SDS011;8524;57.650;11.926;2022-09-04T06:03:19;1.13;;;0.90;;
16813;SDS011;8524;57.650;11.926;2022-09-04T06:11:53;1.10;;;1.00;;
16813;SDS011;8524;57.650;11.926;2022-09-04T06:14:52;0.97;;;0.97;;
16813;SDS011;8524;57.650;11.926;2022-09-04T06:17:54;0.80;;;0.80;;
16813;SDS011;8524;57.650;11.926;2022-09-04T06:20:47;0.93;;;0.90;;
16813;SDS011;8524;57.650;11.926;2022-09-04T06:23:34;0.87;;;0.80;;
16813;SDS011;8524;57.650;11.926;2022-09-04T06:26:16;0.90;;;0.90;;
16813;SDS011;8524;57.650;11.926;2022-09-04T06:28:55;0.80;;;0.80;;
16813;SDS011;8524;57.650;11.926;2022-09-04T06:34:36;1.10;;;0.90;;
16813;SDS011;8524;57.650;11.926;2022-09-04T06:37:24;0.87;;;0.80;;
16813;SDS011;8524;57.650;11.926;2022-09-04T06:40:05;0.63;;;0.63;;
16813;SDS011;8524;57.650;11.926;2022-09-04T06:42:42;0.93;;;0.80;;
16813;SDS011;8524;57.650;11.926;2022-09-04T06:45:18;1.10;;;0.97;;
16813;SDS011;8524;57.650;11.926;2022-09-04T06:47:56;0.80;;;0.80;;
16813;SDS011;8524;57.650;11.926;2022-09-04T06:50:30;0.80;;;0.80;;
16813;SDS011;8524;57.650;11.926;2022-09-04T06:53:06;0.93;;;0.90;;
16813;SDS011;8524;57.650;11.926;2022-09-04T06:55:52;0.90;;;0.90;;
16813;SDS011;8524;57.650;11.926;2022-09-04T06:58:44;0.80;;;0.80;;
16813;SDS011;8524;57.650;11.926;2022-09-04T07:01:22;0.90;;;0.90;;
16813;SDS011;8524;57.650;11.926;2022-09-04T07:04:02;0.80;;;0.80;;
16813;SDS011;8524;57.650;11.926;2022-09-04T07:06:45;0.93;;;0.93;;
16813;SDS011;8524;57.650;11.926;2022-09-04T07:09:17;0.97;;;0.97;;
16813;SDS011;8524;57.650;11.926;2022-09-04T07:11:55;1.90;;;1.00;;
16813;SDS011;8524;57.650;11.926;2022-09-04T07:14:43;0.70;;;0.70;;
16813;SDS011;8524;57.650;11.926;2022-09-04T07:17:32;0.97;;;0.97;;
16813;SDS011;8524;57.650;11.926;2022-09-04T07:20:10;0.90;;;0.85;;
16813;SDS011;8524;57.650;11.926;2022-09-04T07:22:46;0.83;;;0.80;;
16813;SDS011;8524;57.650;11.926;2022-09-04T07:25:37;0.80;;;0.80;;
16813;SDS011;8524;57.650;11.926;2022-09-04T07:28:11;0.70;;;0.70;;
16813;SDS011;8524;57.650;11.926;2022-09-04T07:30:51;0.70;;;0.70;;
16813;SDS011;8524;57.650;11.926;2022-09-04T07:33:31;0.90;;;0.80;;
16813;SDS011;8524;57.650;11.926;2022-09-04T07:36:07;1.10;;;0.80;;
16813;SDS011;8524;57.650;11.926;2022-09-04T07:38:39;0.70;;;0.70;;
16813;SDS011;8524;57.650;11.926;2022-09-04T07:41:17;0.60;;;0.60;;
16813;SDS011;8524;57.650;11.926;2022-09-04T07:43:53;0.80;;;0.80;;
16813;SDS011;8524;57.650;11.926;2022-09-04T07:46:29;1.77;;;0.70;;
16813;SDS011;8524;57.650;11.926;2022-09-04T07:49:07;0.80;;;0.80;;
16813;SDS011;8524;57.650;11.926;2022-09-04T07:51:44;0.70;;;0.70;;
16813;SDS011;8524;57.650;11.926;2022-09-04T07:54:22;1.80;;;0.70;;
16813;SDS011;8524;57.650;11.926;2022-09-04T07:57:06;0.73;;;0.57;;
16813;SDS011;8524;57.650;11.926;2022-09-04T08:00:05;0.80;;;0.50;;
16813;SDS011;8524;57.650;11.926;2022-09-04T08:02:37;1.27;;;0.60;;
16813;SDS011;8524;57.650;11.926;2022-09-04T08:05:21;0.80;;;0.60;;
16813;SDS011;8524;57.650;11.926;2022-09-04T08:08:01;0.83;;;0.67;;
16813;SDS011;8524;57.650;11.926;2022-09-04T08:11:03;0.60;;;0.50;;
16813;SDS011;8524;57.650;11.926;2022-09-04T08:13:47;0.83;;;0.60;;
16813;SDS011;8524;57.650;11.926;2022-09-04T08:16:35;0.93;;;0.50;;
16813;SDS011;8524;57.650;11.926;2022-09-04T08:19:18;0.80;;;0.60;;
16813;SDS011;8524;57.650;11.926;2022-09-04T08:21:59;0.40;;;0.40;;
16813;SDS011;8524;57.650;11.926;2022-09-04T08:24:35;1.13;;;0.83;;
16813;SDS011;8524;57.650;11.926;2022-09-04T08:27:18;0.53;;;0.53;;
16813;SDS011;8524;57.650;11.926;2022-09-04T08:30:01;1.13;;;0.50;;
16813;SDS011;8524;57.650;11.926;2022-09-04T08:32:46;0.67;;;0.53;;
16813;SDS011;8524;57.650;11.926;2022-09-04T08:35:35;0.93;;;0.60;;
16813;SDS011;8524;57.650;11.926;2022-09-04T08:38:20;0.43;;;0.40;;
16813;SDS011;8524;57.650;11.926;2022-09-04T08:44:30;0.47;;;0.47;;
16813;SDS011;8524;57.650;11.926;2022-09-04T08:47:20;1.37;;;0.50;;
16813;SDS011;8524;57.650;11.926;2022-09-04T08:50:16;0.47;;;0.47;;
16813;SDS011;8524;57.650;11.926;2022-09-04T08:56:11;0.40;;;0.40;;
16813;SDS011;8524;57.650;11.926;2022-09-04T09:02:12;1.23;;;0.70;;
16813;SDS011;8524;57.650;11.926;2022-09-04T09:11:18;1.03;;;0.70;;
16813;SDS011;8524;57.650;11.926;2022-09-04T09:17:11;0.50;;;0.30;;
16813;SDS011;8524;57.650;11.926;2022-09-04T09:19:44;1.02;;;0.50;;
16813;SDS011;8524;57.650;11.926;2022-09-04T09:22:44;0.70;;;0.40;;
16813;SDS011;8524;57.650;11.926;2022-09-04T09:25:36;0.30;;;0.30;;
16813;SDS011;8524;57.650;11.926;2022-09-04T09:34:58;0.90;;;0.50;;
16813;SDS011;8524;57.650;11.926;2022-09-04T09:47:39;0.40;;;0.30;;
16813;SDS011;8524;57.650;11.926;2022-09-04T09:50:41;0.30;;;0.30;;
16813;SDS011;8524;57.650;11.926;2022-09-04T09:53:26;0.80;;;0.40;;
16813;SDS011;8524;57.650;11.926;2022-09-04T09:56:24;0.70;;;0.43;;
16813;SDS011;8524;57.650;11.926;2022-09-04T09:59:25;1.23;;;0.40;;
16813;SDS011;8524;57.650;11.926;2022-09-04T10:02:15;1.17;;;0.30;;
16813;SDS011;8524;57.650;11.926;2022-09-04T10:08:20;0.50;;;0.50;;
16813;SDS011;8524;57.650;11.926;2022-09-04T10:14:29;0.77;;;0.50;;
16813;SDS011;8524;57.650;11.926;2022-09-04T10:23:58;0.40;;;0.40;;
16813;SDS011;8524;57.650;11.926;2022-09-04T10:30:10;1.00;;;0.40;;
16813;SDS011;8524;57.650;11.926;2022-09-04T10:35:51;0.50;;;0.50;;
16813;SDS011;8524;57.650;11.926;2022-09-04T10:38:39;0.40;;;0.40;;
16813;SDS011;8524;57.650;11.926;2022-09-04T10:41:43;0.70;;;0.40;;
16813;SDS011;8524;57.650;11.926;2022-09-04T10:44:30;0.80;;;0.40;;
16813;SDS011;8524;57.650;11.926;2022-09-04T10:47:22;0.57;;;0.50;;
16813;SDS011;8524;57.650;11.926;2022-09-04T10:53:03;0.40;;;0.37;;
16813;SDS011;8524;57.650;11.926;2022-09-04T10:55:49;0.30;;;0.30;;
16813;SDS011;8524;57.650;11.926;2022-09-04T10:58:30;0.73;;;0.50;;
16813;SDS011;8524;57.650;11.926;2022-09-04T11:04:33;0.77;;;0.50;;
16813;SDS011;8524;57.650;11.926;2022-09-04T11:10:42;0.40;;;0.30;;
16813;SDS011;8524;57.650;11.926;2022-09-04T11:13:40;0.30;;;0.30;;
16813;SDS011;8524;57.650;11.926;2022-09-04T11:20:02;0.53;;;0.50;;
16813;SDS011;8524;57.650;11.926;2022-09-04T11:26:11;0.30;;;0.30;;
16813;SDS011;8524;57.650;11.926;2022-09-04T11:32:21;0.60;;;0.30;;
16813;SDS011;8524;57.650;11.926;2022-09-04T11:35:14;0.73;;;0.30;;
16813;SDS011;8524;57.650;11.926;2022-09-04T11:38:14;0.40;;;0.40;;
16813;SDS011;8524;57.650;11.926;2022-09-04T11:47:22;0.40;;;0.40;;
16813;SDS011;8524;57.650;11.926;2022-09-04T11:50:09;0.77;;;0.40;;
16813;SDS011;8524;57.650;11.926;2022-09-04T11:52:51;0.23;;;0.23;;
16813;SDS011;8524;57.650;11.926;2022-09-04T11:55:45;0.35;;;0.35;;
16813;SDS011;8524;57.650;11.926;2022-09-04T11:58:27;0.50;;;0.40;;
16813;SDS011;8524;57.650;11.926;2022-09-04T12:01:09;0.33;;;0.33;;
16813;SDS011;8524;57.650;11.926;2022-09-04T12:06:51;0.32;;;0.32;;
16813;SDS011;8524;57.650;11.926;2022-09-04T12:18:33;0.43;;;0.43;;
16813;SDS011;8524;57.650;11.926;2022-09-04T12:21:26;0.27;;;0.27;;
16813;SDS011;8524;57.650;11.926;2022-09-04T12:24:20;0.50;;;0.40;;
16813;SDS011;8524;57.650;11.926;2022-09-04T12:30:09;0.47;;;0.47;;
16813;SDS011;8524;57.650;11.926;2022-09-04T12:32:55;0.20;;;0.20;;
16813;SDS011;8524;57.650;11.926;2022-09-04T12:41:33;0.40;;;0.40;;
16813;SDS011;8524;57.650;11.926;2022-09-04T12:44:06;0.73;;;0.47;;
16813;SDS011;8524;57.650;11.926;2022-09-04T12:46:47;0.40;;;0.40;;
16813;SDS011;8524;57.650;11.926;2022-09-04T12:49:35;0.55;;;0.50;;
16813;SDS011;8524;57.650;11.926;2022-09-04T12:52:29;0.30;;;0.30;;
16813;SDS011;8524;57.650;11.926;2022-09-04T12:55:07;0.67;;;0.50;;
16813;SDS011;8524;57.650;11.926;2022-09-04T12:57:45;0.30;;;0.30;;
16813;SDS011;8524;57.650;11.926;2022-09-04T13:00:20;0.53;;;0.30;;
16813;SDS011;8524;57.650;11.926;2022-09-04T13:02:54;0.77;;;0.40;;
16813;SDS011;8524;57.650;11.926;2022-09-04T13:05:36;0.40;;;0.30;;
16813;SDS011;8524;57.650;11.926;2022-09-04T13:08:23;0.33;;;0.30;;
16813;SDS011;8524;57.650;11.926;2022-09-04T13:10:59;0.70;;;0.53;;
16813;SDS011;8524;57.650;11.926;2022-09-04T13:13:37;0.30;;;0.30;;
16813;SDS011;8524;57.650;11.926;2022-09-04T13:16:12;0.30;;;0.30;;
16813;SDS011;8524;57.650;11.926;2022-09-04T13:18:48;0.40;;;0.40;;
16813;SDS011;8524;57.650;11.926;2022-09-04T13:21:27;1.27;;;0.50;;
16813;SDS011;8524;57.650;11.926;2022-09-04T13:24:10;0.63;;;0.60;;
16813;SDS011;8524;57.650;11.926;2022-09-04T13:26:54;0.40;;;0.40;;
16813;SDS011;8524;57.650;11.926;2022-09-04T13:29:37;0.60;;;0.40;;
16813;SDS011;8524;57.650;11.926;2022-09-04T13:32:29;0.50;;;0.30;;
16813;SDS011;8524;57.650;11.926;2022-09-04T13:35:33;0.30;;;0.30;;
16813;SDS011;8524;57.650;11.926;2022-09-04T13:38:23;0.73;;;0.50;;
16813;SDS011;8524;57.650;11.926;2022-09-04T13:41:14;0.37;;;0.37;;
16813;SDS011;8524;57.650;11.926;2022-09-04T13:47:05;0.20;;;0.20;;
16813;SDS011;8524;57.650;11.926;2022-09-04T13:49:35;0.30;;;0.30;;
16813;SDS011;8524;57.650;11.926;2022-09-04T13:52:07;0.40;;;0.30;;
16813;SDS011;8524;57.650;11.926;2022-09-04T13:54:40;0.67;;;0.50;;
16813;SDS011;8524;57.650;11.926;2022-09-04T13:57:12;0.40;;;0.40;;
16813;SDS011;8524;57.650;11.926;2022-09-04T13:59:42;0.35;;;0.30;;
16813;SDS011;8524;57.650;11.926;2022-09-04T14:02:15;0.40;;;0.40;;
16813;SDS011;8524;57.650;11.926;2022-09-04T14:04:48;0.83;;;0.40;;
16813;SDS011;8524;57.650;11.926;2022-09-04T14:07:20;0.30;;;0.30;;
16813;SDS011;8524;57.650;11.926;2022-09-04T14:09:51;0.30;;;0.30;;
16813;SDS011;8524;57.650;11.926;2022-09-04T14:12:27;0.57;;;0.43;;
16813;SDS011;8524;57.650;11.926;2022-09-04T14:15:34;0.37;;;0.37;;
16813;SDS011;8524;57.650;11.926;2022-09-04T14:18:14;0.27;;;0.20;;
16813;SDS011;8524;57.650;11.926;2022-09-04T14:20:51;0.30;;;0.30;;
16813;SDS011;8524;57.650;11.926;2022-09-04T14:23:23;0.30;;;0.30;;
16813;SDS011;8524;57.650;11.926;2022-09-04T14:26:02;0.70;;;0.30;;
16813;SDS011;8524;57.650;11.926;2022-09-04T14:28:38;0.33;;;0.20;;
16813;SDS011;8524;57.650;11.926;2022-09-04T14:31:12;0.93;;;0.40;;
16813;SDS011;8524;57.650;11.926;2022-09-04T14:33:47;0.27;;;0.27;;
16813;SDS011;8524;57.650;11.926;2022-09-04T14:36:23;0.20;;;0.20;;
16813;SDS011;8524;57.650;11.926;2022-09-04T14:39:09;0.30;;;0.30;;
16813;SDS011;8524;57.650;11.926;2022-09-04T14:41:48;0.30;;;0.30;;
16813;SDS011;8524;57.650;11.926;2022-09-04T14:44:38;0.93;;;0.30;;
16813;SDS011;8524;57.650;11.926;2022-09-04T14:47:18;0.60;;;0.37;;
16813;SDS011;8524;57.650;11.926;2022-09-04T14:49:55;0.30;;;0.30;;
16813;SDS011;8524;57.650;11.926;2022-09-04T14:52:26;0.30;;;0.30;;
16813;SDS011;8524;57.650;11.926;2022-09-04T14:54:57;0.40;;;0.40;;
16813;SDS011;8524;57.650;11.926;2022-09-04T14:57:27;0.30;;;0.30;;
16813;SDS011;8524;57.650;11.926;2022-09-04T15:00:01;0.30;;;0.30;;
16813;SDS011;8524;57.650;11.926;2022-09-04T15:02:35;1.00;;;0.50;;
16813;SDS011;8524;57.650;11.926;2022-09-04T15:05:13;0.40;;;0.40;;
16813;SDS011;8524;57.650;11.926;2022-09-04T15:10:33;0.30;;;0.30;;
16813;SDS011;8524;57.650;11.926;2022-09-04T15:13:21;0.30;;;0.30;;
16813;SDS011;8524;57.650;11.926;2022-09-04T15:16:04;0.43;;;0.40;;
16813;SDS011;8524;57.650;11.926;2022-09-04T15:18:41;0.77;;;0.37;;
16813;SDS011;8524;57.650;11.926;2022-09-04T15:21:21;0.80;;;0.60;;
16813;SDS011;8524;57.650;11.926;2022-09-04T15:23:59;0.40;;;0.40;;
16813;SDS011;8524;57.650;11.926;2022-09-04T15:26:30;0.40;;;0.40;;
16813;SDS011;8524;57.650;11.926;2022-09-04T15:29:02;0.50;;;0.30;;
16813;SDS011;8524;57.650;11.926;2022-09-04T15:31:34;0.30;;;0.30;;
16813;SDS011;8524;57.650;11.926;2022-09-04T15:34:05;0.40;;;0.40;;
16813;SDS011;8524;57.650;11.926;2022-09-04T15:36:35;0.37;;;0.37;;
16813;SDS011;8524;57.650;11.926;2022-09-04T15:39:03;0.30;;;0.30;;
16813;SDS011;8524;57.650;11.926;2022-09-04T15:41:34;0.33;;;0.33;;
16813;SDS011;8524;57.650;11.926;2022-09-04T15:44:11;0.33;;;0.33;;
16813;SDS011;8524;57.650;11.926;2022-09-04T15:46:47;0.30;;;0.30;;
16813;SDS011;8524;57.650;11.926;2022-09-04T15:49:23;0.50;;;0.40;;
16813;SDS011;8524;57.650;11.926;2022-09-04T15:52:01;0.40;;;0.40;;
16813;SDS011;8524;57.650;11.926;2022-09-04T15:54:52;0.47;;;0.47;;
16813;SDS011;8524;57.650;11.926;2022-09-04T15:57:30;0.47;;;0.47;;
16813;SDS011;8524;57.650;11.926;2022-09-04T16:00:07;0.30;;;0.30;;
16813;SDS011;8524;57.650;11.926;2022-09-04T16:02:37;0.30;;;0.30;;
16813;SDS011;8524;57.650;11.926;2022-09-04T16:05:18;0.30;;;0.30;;
16813;SDS011;8524;57.650;11.926;2022-09-04T16:07:55;0.77;;;0.30;;
16813;SDS011;8524;57.650;11.926;2022-09-04T16:10:30;0.40;;;0.40;;
16813;SDS011;8524;57.650;11.926;2022-09-04T16:13:24;0.43;;;0.37;;
16813;SDS011;8524;57.650;11.926;2022-09-04T16:16:05;0.57;;;0.30;;
16813;SDS011;8524;57.650;11.926;2022-09-04T16:18:41;1.20;;;0.50;;
16813;SDS011;8524;57.650;11.926;2022-09-04T16:21:16;0.50;;;0.50;;
16813;SDS011;8524;57.650;11.926;2022-09-04T16:23:51;0.40;;;0.40;;
16813;SDS011;8524;57.650;11.926;2022-09-04T16:26:23;0.53;;;0.53;;
16813;SDS011;8524;57.650;11.926;2022-09-04T16:28:55;0.70;;;0.70;;
16813;SDS011;8524;57.650;11.926;2022-09-04T16:31:29;1.10;;;0.83;;
16813;SDS011;8524;57.650;11.926;2022-09-04T16:33:59;1.00;;;0.60;;
16813;SDS011;8524;57.650;11.926;2022-09-04T16:36:44;0.53;;;0.53;;
16813;SDS011;8524;57.650;11.926;2022-09-04T16:39:22;0.60;;;0.60;;
16813;SDS011;8524;57.650;11.926;2022-09-04T16:41:53;0.50;;;0.50;;
16813;SDS011;8524;57.650;11.926;2022-09-04T16:44:25;1.23;;;0.90;;
16813;SDS011;8524;57.650;11.926;2022-09-04T16:46:57;1.33;;;0.70;;
16813;SDS011;8524;57.650;11.926;2022-09-04T16:49:35;0.73;;;0.73;;
16813;SDS011;8524;57.650;11.926;2022-09-04T16:55:10;1.27;;;0.60;;
16813;SDS011;8524;57.650;11.926;2022-09-04T16:57:48;0.97;;;0.60;;
16813;SDS011;8524;57.650;11.926;2022-09-04T17:00:26;0.50;;;0.50;;
16813;SDS011;8524;57.650;11.926;2022-09-04T17:02:56;0.40;;;0.40;;
16813;SDS011;8524;57.650;11.926;2022-09-04T17:05:33;0.53;;;0.53;;
16813;SDS011;8524;57.650;11.926;2022-09-04T17:08:08;0.90;;;0.60;;
16813;SDS011;8524;57.650;11.926;2022-09-04T17:10:43;0.43;;;0.43;;
16813;SDS011;8524;57.650;11.926;2022-09-04T17:13:15;1.00;;;0.70;;
16813;SDS011;8524;57.650;11.926;2022-09-04T17:15:50;1.60;;;0.70;;
16813;SDS011;8524;57.650;11.926;2022-09-04T17:18:22;1.00;;;0.70;;
16813;SDS011;8524;57.650;11.926;2022-09-04T17:20:52;1.43;;;0.57;;
16813;SDS011;8524;57.650;11.926;2022-09-04T17:23:25;1.07;;;0.70;;
16813;SDS011;8524;57.650;11.926;2022-09-04T17:25:59;0.90;;;0.70;;
16813;SDS011;8524;57.650;11.926;2022-09-04T17:28:39;0.70;;;0.50;;
16813;SDS011;8524;57.650;11.926;2022-09-04T17:31:15;0.60;;;0.50;;
16813;SDS011;8524;57.650;11.926;2022-09-04T17:33:48;0.60;;;0.60;;
16813;SDS011;8524;57.650;11.926;2022-09-04T17:36:21;0.53;;;0.50;;
16813;SDS011;8524;57.650;11.926;2022-09-04T17:38:56;0.50;;;0.50;;
16813;SDS011;8524;57.650;11.926;2022-09-04T17:41:29;0.70;;;0.70;;
16813;SDS011;8524;57.650;11.926;2022-09-04T17:44:08;1.17;;;0.60;;
16813;SDS011;8524;57.650;11.926;2022-09-04T17:46:53;0.70;;;0.70;;
16813;SDS011;8524;57.650;11.926;2022-09-04T17:49:32;2.90;;;0.70;;
16813;SDS011;8524;57.650;11.926;2022-09-04T17:52:02;1.10;;;0.90;;
16813;SDS011;8524;57.650;11.926;2022-09-04T17:54:36;0.80;;;0.70;;
16813;SDS011;8524;57.650;11.926;2022-09-04T17:57:08;0.80;;;0.70;;
16813;SDS011;8524;57.650;11.926;2022-09-04T17:59:40;0.67;;;0.53;;
16813;SDS011;8524;57.650;11.926;2022-09-04T18:02:11;0.83;;;0.70;;
16813;SDS011;8524;57.650;11.926;2022-09-04T18:04:44;0.80;;;0.70;;
16813;SDS011;8524;57.650;11.926;2022-09-04T18:07:19;0.60;;;0.60;;
16813;SDS011;8524;57.650;11.926;2022-09-04T18:09:57;0.80;;;0.80;;
16813;SDS011;8524;57.650;11.926;2022-09-04T18:12:35;1.13;;;0.80;;
16813;SDS011;8524;57.650;11.926;2022-09-04T18:15:07;0.60;;;0.60;;
16813;SDS011;8524;57.650;11.926;2022-09-04T18:17:43;1.20;;;0.70;;
16813;SDS011;8524;57.650;11.926;2022-09-04T18:20:20;0.97;;;0.87;;
16813;SDS011;8524;57.650;11.926;2022-09-04T18:22:56;0.90;;;0.73;;
16813;SDS011;8524;57.650;11.926;2022-09-04T18:25:32;1.37;;;0.90;;